createdAt,value
2024-02-19T00:04:17.728Z,8.60
2024-02-19T00:09:22.468Z,8.60
2024-02-19T00:14:41.404Z,8.60
2024-02-19T00:19:45.557Z,8.50
2024-02-19T00:24:50.438Z,8.50
2024-02-19T00:29:57.574Z,8.50
2024-02-19T00:35:01.456Z,8.50
2024-02-19T00:40:06.726Z,8.60
2024-02-19T00:45:14.126Z,8.60
2024-02-19T00:50:17.776Z,8.50
2024-02-19T00:55:22.860Z,8.40
2024-02-19T01:00:28.717Z,8.50
2024-02-19T01:05:33.601Z,8.50
2024-02-19T01:10:39.027Z,8.60
2024-02-19T01:15:44.002Z,8.50
2024-02-19T01:20:48.317Z,8.50
2024-02-19T01:25:53.546Z,8.50
2024-02-19T01:30:59.075Z,8.50
2024-02-19T01:36:03.780Z,8.60
2024-02-19T01:41:08.496Z,8.50
2024-02-19T01:46:17.019Z,8.50
2024-02-19T01:51:21.979Z,8.60
2024-02-19T01:56:26.478Z,8.50
2024-02-19T02:01:35.632Z,8.50
2024-02-19T02:06:39.585Z,8.50
2024-02-19T02:11:43.609Z,8.60
2024-02-19T02:16:49.482Z,8.80
2024-02-19T02:21:53.255Z,8.60
2024-02-19T02:26:58.888Z,8.70
2024-02-19T02:32:03.439Z,8.60
2024-02-19T02:37:07.281Z,8.60
2024-02-19T02:42:15.885Z,8.70
2024-02-19T02:47:19.989Z,8.60
2024-02-19T02:52:23.680Z,8.70
2024-02-19T02:57:29.664Z,8.60
2024-02-19T03:02:34.723Z,8.50
2024-02-19T03:07:38.794Z,8.60
2024-02-19T03:12:44.006Z,8.60
2024-02-19T03:17:47.694Z,8.60
2024-02-19T03:22:52.506Z,8.60
2024-02-19T03:27:57.641Z,8.60
2024-02-19T03:33:02.825Z,8.60
2024-02-19T03:38:06.821Z,8.70
2024-02-19T03:43:14.255Z,8.60
2024-02-19T03:48:19.485Z,8.60
2024-02-19T03:53:24.276Z,8.70
2024-02-19T03:58:29.301Z,8.80
2024-02-19T04:03:32.977Z,8.80
2024-02-19T04:08:40.493Z,8.70
2024-02-19T04:13:46.081Z,8.80
2024-02-19T04:18:50.058Z,8.80
2024-02-19T04:23:54.204Z,8.80
2024-02-19T04:28:59.940Z,8.80
2024-02-19T04:34:05.993Z,8.80
2024-02-19T04:39:09.675Z,8.70
2024-02-19T04:44:17.472Z,8.60
2024-02-19T04:49:23.000Z,8.60
2024-02-19T04:54:27.004Z,8.50
2024-02-19T04:59:33.700Z,8.50
2024-02-19T05:04:38.061Z,8.40
2024-02-19T05:09:46.969Z,8.30
2024-02-19T05:14:55.273Z,8.30
2024-02-19T05:19:59.310Z,8.30
2024-02-19T05:25:03.730Z,8.20
2024-02-19T05:30:11.564Z,8.10
2024-02-19T05:35:15.552Z,8.10
2024-02-19T05:40:19.804Z,8.10
2024-02-19T05:45:25.055Z,8.00
2024-02-19T05:50:31.951Z,8.00
2024-02-19T05:55:38.374Z,7.90
2024-02-19T06:00:44.009Z,7.70
2024-02-19T06:05:48.344Z,7.70
2024-02-19T06:10:53.816Z,7.50
2024-02-19T06:16:00.833Z,7.50
2024-02-19T06:21:05.740Z,7.50
2024-02-19T06:26:16.414Z,7.50
2024-02-19T06:31:21.988Z,7.40
2024-02-19T06:36:25.558Z,7.50
2024-02-19T06:41:32.147Z,7.50
2024-02-19T06:46:37.444Z,7.40
2024-02-19T06:51:43.341Z,7.50
2024-02-19T06:56:47.346Z,7.60
2024-02-19T07:01:56.316Z,7.40
2024-02-19T07:07:00.413Z,7.50
2024-02-19T07:12:06.687Z,7.50
2024-02-19T07:17:12.631Z,7.60
2024-02-19T07:22:16.378Z,7.50
2024-02-19T07:27:20.395Z,7.50
2024-02-19T07:32:26.995Z,7.60
2024-02-19T07:37:31.542Z,7.50
2024-02-19T07:42:35.271Z,7.50
2024-02-19T07:47:40.595Z,7.60
2024-02-19T07:52:45.430Z,7.50
2024-02-19T07:57:52.547Z,7.50
2024-02-19T08:02:59.217Z,7.50
2024-02-19T08:08:04.465Z,7.50
2024-02-19T08:13:11.122Z,7.50
2024-02-19T08:18:18.599Z,7.50
2024-02-19T08:23:24.109Z,7.40
2024-02-19T08:28:28.388Z,7.50
2024-02-19T08:33:33.597Z,7.50
2024-02-19T08:38:38.455Z,7.50
2024-02-19T08:43:42.436Z,7.50
2024-02-19T08:48:55.538Z,7.50
2024-02-19T08:54:03.508Z,7.80
2024-02-19T08:59:07.127Z,7.90
2024-02-19T09:04:13.074Z,7.90
2024-02-19T09:09:17.029Z,7.80
2024-02-19T09:14:20.910Z,7.70
2024-02-19T09:19:27.043Z,7.60
2024-02-19T09:24:31.581Z,7.70
2024-02-19T09:29:36.605Z,7.70
2024-02-19T09:34:43.542Z,7.70
2024-02-19T09:39:51.785Z,7.70
2024-02-19T09:44:57.218Z,7.80
2024-02-19T09:50:03.643Z,7.80
2024-02-19T09:55:12.542Z,7.60
2024-02-19T10:00:23.019Z,7.40
2024-02-19T10:05:28.751Z,7.30
2024-02-19T10:10:34.207Z,7.20
2024-02-19T10:15:38.461Z,7.10
2024-02-19T10:20:49.370Z,7.20
2024-02-19T10:25:56.782Z,7.40
2024-02-19T10:31:02.806Z,7.50
2024-02-19T10:36:10.699Z,7.50
2024-02-19T10:41:15.125Z,7.50
2024-02-19T10:46:23.346Z,7.50
2024-02-19T10:51:30.687Z,7.60
2024-02-19T10:56:36.843Z,7.90
2024-02-19T11:01:45.111Z,7.80
2024-02-19T11:06:57.290Z,8.00
2024-02-19T11:12:03.142Z,8.10
2024-02-19T11:17:10.831Z,8.10
2024-02-19T11:22:23.210Z,8.00
2024-02-19T11:27:27.554Z,8.10
2024-02-19T11:32:31.897Z,8.00
2024-02-19T11:37:39.224Z,8.10
2024-02-19T11:42:44.769Z,8.20
2024-02-19T11:47:49.751Z,8.30
2024-02-19T11:52:59.776Z,8.40
2024-02-19T11:58:07.290Z,8.60
2024-02-19T12:03:15.602Z,8.90
2024-02-19T12:08:21.136Z,8.90
2024-02-19T12:13:26.125Z,8.80
2024-02-19T12:18:30.570Z,8.80
2024-02-19T12:23:41.809Z,9.00
2024-02-19T12:28:49.604Z,9.20
2024-02-19T12:33:54.301Z,9.30
2024-02-19T12:39:02.326Z,9.00
2024-02-19T12:44:07.223Z,8.70
2024-02-19T12:49:13.209Z,8.90
2024-02-19T12:54:22.878Z,8.90
2024-02-19T12:59:28.501Z,9.10
2024-02-19T13:04:36.282Z,9.10
2024-02-19T13:09:41.518Z,9.10
2024-02-19T13:14:45.176Z,9.10
2024-02-19T13:19:51.760Z,9.30
2024-02-19T13:24:57.396Z,9.20
2024-02-19T13:30:01.452Z,9.10
2024-02-19T13:35:11.549Z,9.20
2024-02-19T13:40:21.500Z,9.20
2024-02-19T13:45:28.700Z,9.10
2024-02-19T13:50:32.864Z,9.30
2024-02-19T13:55:40.711Z,9.50
2024-02-19T14:00:45.516Z,9.30
2024-02-19T14:05:50.897Z,9.80
2024-02-19T14:10:58.589Z,10.30
2024-02-19T14:16:03.139Z,10.40
2024-02-19T14:21:11.977Z,10.30
2024-02-19T14:26:18.471Z,10.30
2024-02-19T14:31:23.886Z,10.30
2024-02-19T14:36:28.000Z,10.40
2024-02-19T14:41:33.465Z,10.40
2024-02-19T14:46:40.754Z,10.20
2024-02-19T14:51:49.393Z,10.10
2024-02-19T14:56:58.073Z,10.20
2024-02-19T15:02:02.739Z,10.20
2024-02-19T15:07:07.679Z,10.20
2024-02-19T15:12:14.897Z,10.20
2024-02-19T15:17:19.180Z,10.00
2024-02-19T15:22:23.132Z,9.90
2024-02-19T15:27:29.451Z,9.70
2024-02-19T15:32:33.934Z,9.70
2024-02-19T15:37:37.816Z,9.60
2024-02-19T15:42:43.206Z,9.60
2024-02-19T15:47:47.703Z,9.50
2024-02-19T15:52:58.992Z,9.60
2024-02-19T15:58:10.805Z,9.50
2024-02-19T16:03:16.769Z,9.40
2024-02-19T16:08:39.353Z,9.40
2024-02-19T16:13:48.194Z,9.20
2024-02-19T16:18:52.619Z,9.10
2024-02-19T16:23:57.728Z,9.20
2024-02-19T16:29:11.397Z,9.10
2024-02-19T16:34:16.201Z,8.90
2024-02-19T16:39:22.169Z,8.80
2024-02-19T16:44:27.692Z,8.70
2024-02-19T16:49:31.742Z,8.80
2024-02-19T16:54:35.700Z,8.70
2024-02-19T16:59:41.424Z,8.70
2024-02-19T17:04:47.786Z,8.70
2024-02-19T17:09:52.046Z,8.20
2024-02-19T17:14:57.621Z,8.00
2024-02-19T17:20:01.691Z,7.90
2024-02-19T17:25:08.708Z,7.90
2024-02-19T17:30:18.186Z,7.90
2024-02-19T17:35:25.099Z,8.10
2024-02-19T17:40:29.179Z,8.20
2024-02-19T17:45:34.167Z,8.40
2024-02-19T17:50:43.241Z,8.40
2024-02-19T17:55:47.275Z,8.60
2024-02-19T18:00:52.660Z,8.60
2024-02-19T18:05:56.885Z,8.70
2024-02-19T18:11:00.508Z,8.70
2024-02-19T18:16:07.781Z,8.90
2024-02-19T18:21:11.788Z,8.90
2024-02-19T18:26:17.124Z,9.00
2024-02-19T18:31:25.556Z,9.00
2024-02-19T18:36:32.537Z,9.00
2024-02-19T18:41:37.006Z,9.00
2024-02-19T18:46:42.254Z,8.90
2024-02-19T18:51:47.541Z,8.90
2024-02-19T18:56:52.326Z,8.80
2024-02-19T19:01:59.393Z,8.70
2024-02-19T19:07:03.688Z,8.80
2024-02-19T19:12:14.875Z,8.70
2024-02-19T19:17:21.470Z,8.70
2024-02-19T19:22:26.493Z,8.60
2024-02-19T19:27:32.733Z,8.60
2024-02-19T19:32:39.389Z,8.80
2024-02-19T19:37:43.733Z,8.80
2024-02-19T19:42:48.421Z,8.70
2024-02-19T19:47:54.714Z,8.70
2024-02-19T19:52:58.474Z,8.60
2024-02-19T19:58:11.013Z,8.60
2024-02-19T20:03:20.408Z,8.40
2024-02-19T20:08:23.945Z,8.60
2024-02-19T20:13:28.324Z,8.60
2024-02-19T20:18:34.472Z,8.50
2024-02-19T20:23:40.210Z,8.60
2024-02-19T20:28:44.088Z,8.70
2024-02-19T20:33:50.742Z,8.70
2024-02-19T20:38:57.829Z,8.60
2024-02-19T20:44:01.717Z,8.60
2024-02-19T20:49:07.132Z,8.60
2024-02-19T20:54:11.530Z,8.30
2024-02-19T20:59:16.111Z,8.20
2024-02-19T21:04:21.802Z,8.30
2024-02-19T21:09:25.668Z,8.40
2024-02-19T21:14:29.306Z,8.50
2024-02-19T21:19:35.924Z,8.50
2024-02-19T21:24:40.392Z,8.60
2024-02-19T21:29:44.729Z,8.50
2024-02-19T21:34:50.223Z,8.60
2024-02-19T21:39:54.053Z,8.60
2024-02-19T21:44:57.927Z,8.70
2024-02-19T21:50:10.088Z,8.70
2024-02-19T21:55:14.169Z,8.70
2024-02-19T22:00:19.978Z,8.80
2024-02-19T22:05:26.549Z,8.80
2024-02-19T22:10:30.839Z,8.90
2024-02-19T22:15:34.733Z,8.90
2024-02-19T22:20:45.547Z,8.90
2024-02-19T22:25:49.628Z,8.90
2024-02-19T22:30:53.343Z,8.90
2024-02-19T22:35:58.786Z,8.80
2024-02-19T22:41:02.510Z,8.80
2024-02-19T22:46:06.409Z,8.80
2024-02-19T22:51:11.993Z,8.80
2024-02-19T22:56:23.072Z,8.80
2024-02-19T23:01:27.781Z,8.90
2024-02-19T23:06:37.711Z,8.90
2024-02-19T23:11:41.412Z,8.80
2024-02-19T23:16:45.346Z,8.90
2024-02-19T23:21:53.208Z,8.80
2024-02-19T23:26:57.849Z,8.90
2024-02-19T23:32:01.756Z,8.90
2024-02-19T23:37:07.096Z,9.10
2024-02-19T23:42:11.707Z,8.90
2024-02-19T23:47:18.081Z,8.80
2024-02-19T23:52:23.596Z,8.90
2024-02-19T23:57:27.849Z,8.90
